Terminal Aerodrome Forecast
Issued by NWS

Home | Current Version | Previous Version | Text Only | Print | Product List | Glossary On
Versions: 1 2 3 4 5 6 7 8 9 10 11 12 13
810
FTUS43 KMQT 211731
TAFIWD
TAF
KIWD 211731Z 2118/2218 04004KT P6SM BKN200
     FM220700 16003KT P6SM BKN050
     FM220900 15003KT 5SM BR BKN020
     FM221400 00000KT P6SM BKN020=

USA.gov is the U.S. government's official web portal to all federal, state and local government web resources and services.